createdAt,value
2018-09-22T00:01:46.942Z,2.33
2018-09-22T00:04:15.527Z,2.37
2018-09-22T00:06:44.095Z,2.67
2018-09-22T00:09:12.816Z,2.17
2018-09-22T00:11:41.351Z,2.03
2018-09-22T00:14:24.280Z,2.77
2018-09-22T00:16:52.811Z,2.20
2018-09-22T00:19:21.486Z,2.53
2018-09-22T00:21:50.411Z,3.57
2018-09-22T00:24:19.051Z,2.60
2018-09-22T00:26:47.682Z,2.73
2018-09-22T00:29:16.138Z,2.20
2018-09-22T00:31:44.638Z,2.57
2018-09-22T00:34:13.115Z,3.03
2018-09-22T00:36:41.602Z,2.73
2018-09-22T00:39:11.087Z,2.70
2018-09-22T00:41:39.820Z,2.80
2018-09-22T00:44:08.317Z,2.20
2018-09-22T00:46:36.800Z,2.53
2018-09-22T00:49:05.286Z,2.30
2018-09-22T00:51:33.983Z,2.77
2018-09-22T00:54:02.454Z,2.80
2018-09-22T00:56:30.944Z,2.83
2018-09-22T00:58:59.430Z,2.53
2018-09-22T01:01:27.919Z,2.73
2018-09-22T01:03:56.729Z,2.70
2018-09-22T01:06:25.227Z,2.90
2018-09-22T01:08:53.687Z,2.77
2018-09-22T01:11:22.227Z,2.87
2018-09-22T01:13:50.679Z,2.67
2018-09-22T01:16:19.179Z,2.83
2018-09-22T01:18:48.727Z,2.87
2018-09-22T01:21:17.201Z,2.00
2018-09-22T01:23:45.671Z,2.73
2018-09-22T01:26:14.165Z,2.80
2018-09-22T01:28:42.643Z,2.93
2018-09-22T01:31:11.104Z,2.60
2018-09-22T01:33:39.599Z,2.27
2018-09-22T01:36:08.041Z,2.40
2018-09-22T01:38:36.561Z,2.83
2018-09-22T01:41:05.067Z,3.07
2018-09-22T01:43:33.563Z,2.20
2018-09-22T01:46:02.051Z,3.20
2018-09-22T01:48:30.570Z,2.03
2018-09-22T01:50:59.237Z,2.43
2018-09-22T01:53:27.714Z,3.03
2018-09-22T01:55:56.197Z,3.13
2018-09-22T01:58:25.346Z,2.50
2018-09-22T02:00:53.841Z,2.50
2018-09-22T02:03:22.338Z,2.53
2018-09-22T02:06:05.642Z,2.87
2018-09-22T02:08:34.131Z,3.43
2018-09-22T02:11:02.950Z,3.50
2018-09-22T02:13:31.435Z,2.30
2018-09-22T02:16:00.666Z,2.80
2018-09-22T02:18:29.147Z,2.70
2018-09-22T02:20:57.695Z,2.97
2018-09-22T02:23:26.838Z,2.40
2018-09-22T02:25:55.646Z,2.20
2018-09-22T02:28:24.110Z,2.20
2018-09-22T02:30:52.790Z,2.77
2018-09-22T02:33:21.275Z,2.00
2018-09-22T02:35:49.759Z,3.07
2018-09-22T02:38:18.253Z,2.50
2018-09-22T02:40:46.740Z,2.70
2018-09-22T02:43:15.191Z,2.60
2018-09-22T02:45:44.691Z,2.60
2018-09-22T02:48:13.195Z,3.03
2018-09-22T02:50:41.706Z,2.30
2018-09-22T02:53:10.167Z,2.10
2018-09-22T02:55:38.666Z,2.47
2018-09-22T02:58:07.162Z,2.47
2018-09-22T03:00:35.698Z,3.53
2018-09-22T03:03:04.214Z,2.23
2018-09-22T03:05:32.706Z,2.53
2018-09-22T03:08:01.189Z,2.73
2018-09-22T03:10:29.747Z,2.73
2018-09-22T03:12:58.206Z,2.80
2018-09-22T03:15:26.745Z,3.53
2018-09-22T03:17:55.370Z,3.13
2018-09-22T03:20:23.865Z,3.07
2018-09-22T03:22:52.563Z,3.60
2018-09-22T03:25:21.043Z,2.87
2018-09-22T03:27:50.147Z,3.70
2018-09-22T03:30:18.670Z,3.37
2018-09-22T03:32:47.150Z,4.57
2018-09-22T03:35:15.659Z,3.63
2018-09-22T03:37:44.171Z,3.60
2018-09-22T03:40:12.991Z,3.70
2018-09-22T03:42:41.494Z,3.63
2018-09-22T03:45:09.963Z,3.97
2018-09-22T03:47:38.455Z,3.00
2018-09-22T03:50:06.960Z,3.90
2018-09-22T03:52:35.439Z,4.30
2018-09-22T03:55:04.330Z,3.83
2018-09-22T03:57:33.018Z,3.57
2018-09-22T04:00:01.469Z,3.40
2018-09-22T04:02:29.999Z,3.57
2018-09-22T04:04:58.470Z,3.80
2018-09-22T04:07:26.975Z,3.50
2018-09-22T04:09:55.439Z,3.97
2018-09-22T04:12:23.942Z,3.30
2018-09-22T04:14:53.442Z,3.30
2018-09-22T04:17:22.302Z,3.63
2018-09-22T04:19:50.755Z,3.60
2018-09-22T04:22:19.228Z,3.80
2018-09-22T04:24:47.725Z,3.47
2018-09-22T04:27:16.200Z,3.53
2018-09-22T04:29:44.941Z,3.37
2018-09-22T04:32:13.398Z,3.60
2018-09-22T04:34:41.910Z,3.13
2018-09-22T04:37:10.380Z,3.13
2018-09-22T04:39:38.854Z,3.87
2018-09-22T04:42:07.774Z,3.60
2018-09-22T04:44:36.258Z,2.60
2018-09-22T04:47:04.727Z,2.63
2018-09-22T04:49:33.227Z,3.67
2018-09-22T04:52:01.686Z,3.87
2018-09-22T04:54:30.188Z,3.47
2018-09-22T04:56:58.670Z,3.40
2018-09-22T04:59:27.155Z,3.43
2018-09-22T05:01:55.606Z,3.50
2018-09-22T05:04:24.146Z,2.80
2018-09-22T05:06:52.631Z,3.33
2018-09-22T05:09:21.103Z,3.23
2018-09-22T05:11:49.571Z,3.20
2018-09-22T05:14:18.063Z,3.17
2018-09-22T05:16:46.529Z,2.97
2018-09-22T05:19:15.011Z,4.67
2018-09-22T05:21:43.463Z,2.80
2018-09-22T05:24:11.967Z,3.53
2018-09-22T05:26:40.511Z,3.00
2018-09-22T05:29:09.071Z,2.97
2018-09-22T05:31:37.593Z,3.60
2018-09-22T05:34:06.094Z,3.30
2018-09-22T05:36:34.558Z,3.83
2018-09-22T05:39:03.190Z,3.00
2018-09-22T05:41:31.972Z,3.60
2018-09-22T05:44:00.627Z,3.57
2018-09-22T05:46:29.126Z,3.10
2018-09-22T05:48:57.592Z,2.77
2018-09-22T05:51:26.280Z,2.47
2018-09-22T05:53:54.762Z,2.90
2018-09-22T05:56:23.226Z,3.17
2018-09-22T05:58:51.691Z,3.00
2018-09-22T06:01:20.250Z,3.13
2018-09-22T06:03:48.846Z,3.00
2018-09-22T06:06:17.433Z,3.43
2018-09-22T06:08:45.923Z,2.80
2018-09-22T06:11:14.491Z,2.97
2018-09-22T06:13:43.148Z,3.17
2018-09-22T06:16:11.667Z,3.90
2018-09-22T06:18:40.126Z,3.50
2018-09-22T06:21:08.642Z,4.20
2018-09-22T06:23:37.120Z,3.37
2018-09-22T06:26:05.815Z,3.07
2018-09-22T06:28:34.376Z,3.47
2018-09-22T06:31:04.978Z,3.60
2018-09-22T06:33:33.418Z,3.00
2018-09-22T06:36:01.881Z,3.60
2018-09-22T06:38:30.367Z,2.73
2018-09-22T06:40:58.876Z,3.33
2018-09-22T06:43:27.378Z,3.50
2018-09-22T06:45:56.034Z,3.63
2018-09-22T06:48:24.549Z,4.00
2018-09-22T06:50:53.058Z,2.67
2018-09-22T06:53:21.593Z,3.20
2018-09-22T06:55:50.063Z,3.63
2018-09-22T06:58:18.562Z,2.77
2018-09-22T07:00:47.038Z,2.93
2018-09-22T07:03:15.590Z,2.77
2018-09-22T07:05:44.031Z,2.73
2018-09-22T07:08:12.506Z,2.73
2018-09-22T07:10:42.613Z,2.93
2018-09-22T07:13:11.838Z,2.70
2018-09-22T07:15:40.357Z,3.23
2018-09-22T07:18:08.866Z,3.10
2018-09-22T07:20:38.306Z,3.17
2018-09-22T07:23:12.044Z,3.00
2018-09-22T07:25:40.589Z,3.37
2018-09-22T07:28:09.523Z,3.80
2018-09-22T07:30:38.208Z,4.07
2018-09-22T07:33:07.050Z,3.37
2018-09-22T07:35:35.959Z,3.17
2018-09-22T07:38:05.401Z,3.50
2018-09-22T07:40:34.218Z,3.17
2018-09-22T07:43:03.021Z,3.23
2018-09-22T07:45:31.670Z,2.90
2018-09-22T07:48:00.202Z,3.20
2018-09-22T07:50:31.035Z,3.47
2018-09-22T07:52:59.525Z,3.83
2018-09-22T07:55:28.713Z,3.77
2018-09-22T07:57:57.167Z,3.73
2018-09-22T08:00:25.780Z,6.53
2018-09-22T08:02:54.387Z,3.60
2018-09-22T08:05:22.886Z,3.00
2018-09-22T08:07:51.991Z,2.90
2018-09-22T08:10:20.518Z,3.07
2018-09-22T08:12:49.001Z,2.80
2018-09-22T08:15:17.883Z,3.23
2018-09-22T08:17:46.395Z,2.53
2018-09-22T08:20:14.862Z,2.70
2018-09-22T08:22:43.347Z,3.90
2018-09-22T08:25:11.855Z,3.17
2018-09-22T08:27:40.595Z,2.80
2018-09-22T08:30:09.122Z,2.93
2018-09-22T08:32:37.864Z,3.00
2018-09-22T08:35:07.046Z,3.23
2018-09-22T08:37:36.286Z,3.10
2018-09-22T08:40:05.006Z,2.87
2018-09-22T08:42:33.615Z,3.20
2018-09-22T08:45:02.243Z,3.57
2018-09-22T08:47:31.543Z,2.77
2018-09-22T08:50:00.153Z,2.83
2018-09-22T08:52:28.996Z,3.03
2018-09-22T08:54:57.459Z,3.23
2018-09-22T08:57:25.978Z,3.93
2018-09-22T08:59:54.426Z,2.77
2018-09-22T09:02:22.917Z,3.10
2018-09-22T09:04:51.667Z,3.03
2018-09-22T09:07:20.295Z,3.97
2018-09-22T09:09:48.791Z,3.40
2018-09-22T09:12:18.314Z,2.90
2018-09-22T09:14:46.829Z,3.23
2018-09-22T09:17:15.460Z,3.37
2018-09-22T09:19:43.984Z,3.30
2018-09-22T09:22:12.507Z,3.80
2018-09-22T09:24:40.982Z,3.57
2018-09-22T09:27:09.546Z,3.23
2018-09-22T09:29:37.991Z,3.93
2018-09-22T09:32:06.514Z,3.43
2018-09-22T09:34:35.032Z,3.13
2018-09-22T09:37:03.537Z,3.57
2018-09-22T09:39:32.035Z,3.97
2018-09-22T09:42:00.606Z,3.43
2018-09-22T09:44:29.134Z,3.37
2018-09-22T09:46:57.683Z,4.37
2018-09-22T09:49:29.507Z,3.33
2018-09-22T09:51:58.006Z,2.97
2018-09-22T09:54:26.630Z,3.33
2018-09-22T09:56:55.294Z,3.20
2018-09-22T09:59:23.779Z,3.90
2018-09-22T10:01:52.331Z,4.00
2018-09-22T10:04:20.858Z,2.37
2018-09-22T10:06:49.533Z,3.87
2018-09-22T10:09:18.027Z,2.80
2018-09-22T10:11:46.533Z,3.60
2018-09-22T10:14:15.102Z,2.93
2018-09-22T10:16:43.574Z,3.83
2018-09-22T10:19:12.041Z,3.20
2018-09-22T10:21:40.522Z,3.97
2018-09-22T10:24:09.019Z,2.80
2018-09-22T10:26:37.548Z,3.00
2018-09-22T10:29:06.054Z,2.97
2018-09-22T10:31:34.564Z,3.17
2018-09-22T10:34:03.040Z,3.03
2018-09-22T10:36:33.250Z,3.03
2018-09-22T10:39:01.734Z,2.50
2018-09-22T10:41:30.213Z,3.30
2018-09-22T10:43:58.685Z,2.40
2018-09-22T10:46:27.163Z,3.47
2018-09-22T10:48:55.643Z,2.57
2018-09-22T10:51:24.113Z,3.57
2018-09-22T10:53:52.587Z,3.00
2018-09-22T10:56:21.071Z,3.07
2018-09-22T10:58:49.535Z,3.37
2018-09-22T11:01:18.099Z,2.50
2018-09-22T11:03:47.397Z,2.70
2018-09-22T11:06:16.050Z,3.33
2018-09-22T11:08:44.502Z,2.83
2018-09-22T11:11:12.987Z,2.00
2018-09-22T11:13:41.490Z,2.67
2018-09-22T11:16:10.046Z,2.03
2018-09-22T11:18:38.486Z,2.60
2018-09-22T11:21:06.962Z,2.60
2018-09-22T11:23:35.414Z,2.37
2018-09-22T11:26:03.894Z,2.10
2018-09-22T11:28:32.422Z,3.17
2018-09-22T11:31:00.895Z,2.63
2018-09-22T11:33:29.378Z,2.37
2018-09-22T11:35:57.838Z,2.50
2018-09-22T11:38:26.362Z,2.83
2018-09-22T11:40:54.969Z,2.07
2018-09-22T11:43:23.506Z,2.70
2018-09-22T11:45:51.967Z,2.20
2018-09-22T11:48:20.442Z,2.50
2018-09-22T11:50:48.908Z,2.03
2018-09-22T11:53:17.375Z,2.27
2018-09-22T11:55:45.839Z,2.00
2018-09-22T11:58:14.349Z,2.07
2018-09-22T12:00:42.847Z,2.03
2018-09-22T12:03:11.379Z,2.47
2018-09-22T12:05:40.200Z,2.00
2018-09-22T12:08:08.739Z,2.47
2018-09-22T12:10:37.207Z,1.87
2018-09-22T12:13:05.736Z,2.10
2018-09-22T12:15:34.555Z,2.57
2018-09-22T12:18:03.026Z,2.17
2018-09-22T12:20:31.499Z,2.30
2018-09-22T12:22:59.991Z,2.33
2018-09-22T12:25:28.448Z,1.80
2018-09-22T12:27:57.150Z,2.87
2018-09-22T12:30:25.631Z,2.20
2018-09-22T12:32:54.104Z,2.70
2018-09-22T12:35:22.797Z,2.53
2018-09-22T12:37:51.254Z,2.80
2018-09-22T12:40:19.742Z,2.20
2018-09-22T12:42:48.194Z,2.70
2018-09-22T12:45:16.682Z,2.67
2018-09-22T12:47:45.157Z,2.20
2018-09-22T12:50:13.624Z,2.33
2018-09-22T12:52:42.103Z,2.70
2018-09-22T12:55:10.676Z,2.03
2018-09-22T12:57:39.506Z,2.90
2018-09-22T13:00:08.073Z,2.33
2018-09-22T13:02:36.850Z,2.10
2018-09-22T13:05:05.822Z,2.47
2018-09-22T13:07:34.536Z,2.33
2018-09-22T13:10:03.665Z,2.83
2018-09-22T13:12:32.470Z,2.80
2018-09-22T13:15:01.174Z,2.20
2018-09-22T13:17:29.647Z,2.57
2018-09-22T13:19:58.135Z,1.83
2018-09-22T13:22:28.775Z,2.13
2018-09-22T13:24:58.103Z,2.00
2018-09-22T13:27:27.738Z,2.10
2018-09-22T13:29:58.015Z,1.80
2018-09-22T13:32:27.278Z,2.23
2018-09-22T13:34:56.751Z,2.43
2018-09-22T13:37:28.291Z,2.73
2018-09-22T13:39:59.304Z,1.93
2018-09-22T13:42:28.043Z,2.60
2018-09-22T13:44:56.998Z,2.10
2018-09-22T13:47:26.842Z,2.40
2018-09-22T13:49:57.035Z,2.53
2018-09-22T13:52:27.046Z,2.23
2018-09-22T13:54:56.350Z,1.70
2018-09-22T13:57:26.162Z,3.80
2018-09-22T13:59:56.170Z,2.83
2018-09-22T14:02:24.923Z,2.17
2018-09-22T14:04:54.271Z,2.10
2018-09-22T14:07:23.272Z,2.57
2018-09-22T14:09:52.374Z,2.23
2018-09-22T14:12:23.383Z,2.13
2018-09-22T14:14:52.611Z,2.80
2018-09-22T14:17:21.449Z,2.33
2018-09-22T14:19:50.641Z,1.93
2018-09-22T14:22:21.861Z,3.03
2018-09-22T14:24:51.218Z,2.23
2018-09-22T14:27:20.093Z,2.40
2018-09-22T14:29:49.471Z,2.03
2018-09-22T14:32:18.443Z,2.63
2018-09-22T14:34:48.417Z,2.60
2018-09-22T14:37:17.871Z,2.50
2018-09-22T14:39:48.079Z,2.10
2018-09-22T14:42:17.437Z,1.87
2018-09-22T14:44:46.591Z,2.97
2018-09-22T14:47:16.086Z,2.83
2018-09-22T14:49:46.469Z,2.17
2018-09-22T14:52:17.382Z,2.30
2018-09-22T14:54:46.903Z,2.17
2018-09-22T14:57:15.367Z,2.30
2018-09-22T14:59:46.058Z,2.10
2018-09-22T15:02:16.992Z,1.40
2018-09-22T15:04:46.553Z,1.50
2018-09-22T15:07:18.391Z,1.73
2018-09-22T15:09:48.623Z,1.40
2018-09-22T15:12:17.592Z,1.33
2018-09-22T15:14:46.111Z,1.57
2018-09-22T15:17:14.589Z,1.50
2018-09-22T15:19:43.250Z,1.60
2018-09-22T15:22:11.691Z,1.40
2018-09-22T15:24:40.150Z,1.50
2018-09-22T15:27:08.618Z,1.40
2018-09-22T15:29:37.078Z,1.30
2018-09-22T15:32:05.555Z,1.60
2018-09-22T15:34:34.071Z,1.33
2018-09-22T15:37:02.601Z,1.70
2018-09-22T15:39:31.219Z,1.47
2018-09-22T15:41:59.658Z,1.77
2018-09-22T15:44:28.157Z,1.53
2018-09-22T15:46:56.635Z,1.80
2018-09-22T15:49:25.088Z,2.47
2018-09-22T15:51:53.578Z,1.53
2018-09-22T15:54:22.035Z,1.90
2018-09-22T15:56:50.558Z,1.90
2018-09-22T15:59:19.019Z,2.20
2018-09-22T16:01:47.528Z,2.40
2018-09-22T16:04:15.995Z,2.03
2018-09-22T16:06:44.483Z,2.67
2018-09-22T16:09:12.929Z,2.17
2018-09-22T16:11:41.420Z,2.63
2018-09-22T16:14:09.883Z,2.20
2018-09-22T16:16:38.363Z,2.20
2018-09-22T16:19:06.835Z,2.33
2018-09-22T16:21:35.307Z,2.40
2018-09-22T16:24:03.970Z,2.20
2018-09-22T16:26:32.479Z,2.40
2018-09-22T16:29:00.974Z,2.70
2018-09-22T16:31:29.459Z,3.10
2018-09-22T16:33:57.912Z,2.70
2018-09-22T16:36:26.369Z,2.53
2018-09-22T16:38:54.842Z,3.17
2018-09-22T16:41:23.293Z,3.47
2018-09-22T16:43:51.770Z,3.40
2018-09-22T16:46:20.230Z,3.60
2018-09-22T16:48:48.711Z,2.90
2018-09-22T16:51:17.174Z,3.23
2018-09-22T16:53:45.681Z,3.30
2018-09-22T16:56:14.134Z,3.73
2018-09-22T16:58:42.665Z,3.70
2018-09-22T17:01:11.135Z,3.30
2018-09-22T17:03:40.526Z,3.13
2018-09-22T17:06:09.018Z,3.03
2018-09-22T17:08:38.231Z,3.93
2018-09-22T17:11:06.726Z,3.73
2018-09-22T17:13:35.241Z,3.93
2018-09-22T17:16:04.162Z,4.40
2018-09-22T17:18:33.042Z,3.90
2018-09-22T17:21:01.510Z,4.53
2018-09-22T17:23:30.303Z,5.93
2018-09-22T17:25:58.778Z,4.60
2018-09-22T17:28:27.446Z,5.30
2018-09-22T17:30:56.279Z,4.80
2018-09-22T17:33:24.737Z,4.97
2018-09-22T17:35:53.207Z,5.57
2018-09-22T17:38:21.691Z,6.37
2018-09-22T17:40:50.277Z,5.17
2018-09-22T17:43:18.833Z,5.87
2018-09-22T17:45:47.435Z,5.53
2018-09-22T17:48:15.950Z,5.33
2018-09-22T17:50:44.466Z,6.07
2018-09-22T17:53:12.967Z,6.03
2018-09-22T17:55:41.527Z,5.50
2018-09-22T17:58:10.026Z,6.03
2018-09-22T18:00:38.565Z,5.93
2018-09-22T18:03:07.017Z,6.30
2018-09-22T18:05:35.708Z,6.50
2018-09-22T18:08:04.165Z,6.50
2018-09-22T18:10:32.642Z,6.90
2018-09-22T18:13:01.102Z,6.77
2018-09-22T18:15:29.599Z,6.37
2018-09-22T18:17:58.162Z,7.27
2018-09-22T18:20:26.661Z,7.07
2018-09-22T18:22:55.115Z,7.37
2018-09-22T18:25:23.580Z,7.63
2018-09-22T18:27:52.277Z,6.90
2018-09-22T18:30:20.845Z,7.47
2018-09-22T18:32:50.005Z,7.07
2018-09-22T18:35:18.531Z,8.30
2018-09-22T18:37:47.003Z,8.03
2018-09-22T18:40:15.657Z,8.23
2018-09-22T18:42:44.130Z,8.10
2018-09-22T18:45:12.650Z,8.40
2018-09-22T18:47:41.134Z,8.27
2018-09-22T18:50:09.611Z,7.67
2018-09-22T18:52:38.108Z,9.20
2018-09-22T18:55:06.826Z,7.57
2018-09-22T18:57:35.295Z,8.80
2018-09-22T19:00:03.798Z,9.27
2018-09-22T19:02:32.344Z,7.70
2018-09-22T19:05:00.830Z,7.63
2018-09-22T19:07:29.606Z,8.37
2018-09-22T19:09:58.067Z,8.53
2018-09-22T19:12:26.662Z,8.70
2018-09-22T19:15:03.703Z,8.07
2018-09-22T19:19:39.414Z,8.40
2018-09-22T19:22:11.507Z,9.07
2018-09-22T19:24:53.019Z,8.47
2018-09-22T19:27:25.344Z,7.53
2018-09-22T19:30:29.034Z,9.90
2018-09-22T19:33:02.452Z,8.57
2018-09-22T19:35:38.183Z,8.77
2018-09-22T19:40:12.965Z,8.20
2018-09-22T19:43:48.008Z,8.43
2018-09-22T19:46:19.050Z,8.17
2018-09-22T19:48:56.570Z,7.97
2018-09-22T19:51:27.062Z,8.27
2018-09-22T19:53:57.701Z,8.60
2018-09-22T19:56:26.150Z,8.07
2018-09-22T19:58:54.630Z,8.83
2018-09-22T20:01:23.094Z,8.23
2018-09-22T20:03:51.577Z,8.73
2018-09-22T20:06:20.081Z,10.03
2018-09-22T20:08:48.549Z,9.10
2018-09-22T20:11:17.048Z,9.43
2018-09-22T20:13:46.318Z,10.87
2018-09-22T20:16:14.804Z,10.40
2018-09-22T20:18:43.282Z,10.47
2018-09-22T20:21:11.786Z,11.33
2018-09-22T20:23:40.293Z,12.10
2018-09-22T20:26:08.762Z,11.03
2018-09-22T20:28:37.345Z,9.97
2018-09-22T20:31:05.850Z,11.17
2018-09-22T20:33:34.310Z,11.47
2018-09-22T20:36:02.804Z,12.03
2018-09-22T20:38:31.329Z,12.57
2018-09-22T20:40:59.855Z,13.33
2018-09-22T20:43:28.271Z,12.60
2018-09-22T20:45:56.722Z,12.50
2018-09-22T20:48:25.136Z,12.60
2018-09-22T20:50:53.587Z,12.20
2018-09-22T20:53:22.014Z,11.33
2018-09-22T20:55:50.418Z,12.73
2018-09-22T20:58:18.845Z,12.27
2018-09-22T21:00:47.267Z,12.40
2018-09-22T21:03:15.745Z,13.50
2018-09-22T21:05:44.157Z,12.87
2018-09-22T21:08:12.594Z,12.73
2018-09-22T21:10:40.997Z,14.20
2018-09-22T21:13:09.475Z,14.87
2018-09-22T21:15:37.878Z,13.83
2018-09-22T21:18:06.385Z,13.60
2018-09-22T21:20:34.791Z,14.57
2018-09-22T21:23:03.206Z,14.37
2018-09-22T21:25:31.618Z,15.20
2018-09-22T21:28:00.062Z,13.73
2018-09-22T21:30:28.485Z,12.93
2018-09-22T21:32:56.917Z,14.70
2018-09-22T21:35:25.622Z,14.03
2018-09-22T21:37:54.388Z,13.27
2018-09-22T21:40:22.830Z,12.73
2018-09-22T21:42:51.263Z,12.30
2018-09-22T21:45:19.722Z,13.60
2018-09-22T21:47:48.160Z,13.00
2018-09-22T21:50:16.574Z,12.47
2018-09-22T21:52:45.006Z,12.47
2018-09-22T21:55:13.447Z,12.87
2018-09-22T21:57:41.867Z,13.27
2018-09-22T22:00:10.674Z,12.33
2018-09-22T22:02:39.084Z,12.37
2018-09-22T22:05:07.519Z,12.10
2018-09-22T22:07:35.965Z,11.73
2018-09-22T22:10:04.459Z,12.93
2018-09-22T22:12:32.871Z,12.43
2018-09-22T22:15:01.314Z,13.27
2018-09-22T22:17:29.730Z,13.27
2018-09-22T22:19:58.166Z,13.00
2018-09-22T22:22:26.590Z,12.33
2018-09-22T22:24:55.030Z,13.40
2018-09-22T22:27:23.447Z,14.17
2018-09-22T22:29:51.871Z,12.70
2018-09-22T22:32:20.288Z,12.67
2018-09-22T22:34:48.732Z,12.77
2018-09-22T22:37:17.155Z,13.90
2018-09-22T22:39:45.602Z,12.80
2018-09-22T22:42:14.046Z,14.57
2018-09-22T22:44:42.463Z,16.40
2018-09-22T22:47:11.389Z,16.07
2018-09-22T22:49:39.807Z,15.07
2018-09-22T22:52:08.238Z,15.70
2018-09-22T22:54:36.692Z,17.03
2018-09-22T22:57:05.132Z,16.50
2018-09-22T22:59:33.558Z,18.13
2018-09-22T23:02:02.024Z,16.93
2018-09-22T23:04:30.442Z,18.93
2018-09-22T23:06:58.878Z,18.30
2018-09-22T23:09:27.284Z,20.90
2018-09-22T23:11:55.718Z,21.33
2018-09-22T23:14:24.151Z,22.33
2018-09-22T23:16:52.589Z,23.97
2018-09-22T23:19:20.994Z,25.47
2018-09-22T23:21:49.841Z,23.27
2018-09-22T23:24:18.281Z,26.17
2018-09-22T23:26:46.723Z,25.77
2018-09-22T23:29:15.155Z,27.43
2018-09-22T23:31:43.564Z,25.80
2018-09-22T23:34:12.026Z,27.73
2018-09-22T23:36:40.445Z,25.77
2018-09-22T23:39:10.825Z,26.93
2018-09-22T23:41:39.397Z,29.53
2018-09-22T23:44:08.289Z,23.73
2018-09-22T23:46:36.718Z,26.70
2018-09-22T23:49:05.141Z,27.70
2018-09-22T23:51:33.544Z,27.40
2018-09-22T23:54:01.973Z,27.37
2018-09-22T23:56:30.707Z,26.60
2018-09-22T23:58:59.137Z,25.83
